Time;durP1;ratioP1;P1;durP2;ratioP2;P2;SDS_P1;SDS_P2;PMS_P1;PMS_P2;Temp;Humidity;BMP_temperature;BMP_pressure;BME280_temperature;BME280_humidity;BME280_pressure;Samples;Min_cycle;Max_cycle;Signal;HPM_P1;HPM_P2
2021/12/15 00:01:00;;;;;;;35.13;17.40;;;10.70;99.90;;;;;;4992723;28;20169;-84
2021/12/15 00:03:26;;;;;;;31.35;18.33;;;10.70;99.90;;;;;;4977502;28;20502;-84
2021/12/15 00:05:52;;;;;;;31.85;17.60;;;10.70;99.90;;;;;;4977697;28;20225;-81
2021/12/15 00:08:18;;;;;;;36.10;18.27;;;10.80;99.90;;;;;;4976958;28;20273;-79
2021/12/15 00:10:45;;;;;;;31.10;16.80;;;11.00;99.90;;;;;;4992179;28;20571;-86
2021/12/15 00:13:12;;;;;;;33.78;18.27;;;11.10;99.90;;;;;;4977228;28;20177;-86
2021/12/15 00:15:39;;;;;;;35.90;18.13;;;10.80;99.90;;;;;;4977559;28;20237;-79
2021/12/15 00:18:05;;;;;;;37.35;19.58;;;10.60;99.90;;;;;;4975727;28;20549;-80
2021/12/15 00:20:31;;;;;;;33.00;17.50;;;10.60;99.90;;;;;;4977075;28;20169;-85
2021/12/15 00:22:58;;;;;;;31.67;17.45;;;10.60;99.90;;;;;;4977201;28;20248;-86
2021/12/15 00:25:30;;;;;;;40.28;18.67;;;10.60;99.90;;;;;;4976636;28;20201;-86
2021/12/15 00:27:57;;;;;;;34.67;18.42;;;10.80;99.90;;;;;;4976609;28;20206;-78
2021/12/15 00:30:23;;;;;;;31.45;17.92;;;10.80;99.90;;;;;;4976816;28;20199;-86
2021/12/15 00:32:50;;;;;;;30.65;17.88;;;10.70;99.90;;;;;;4991918;28;20601;-87
2021/12/15 00:35:16;;;;;;;36.45;17.30;;;10.80;99.90;;;;;;4976962;28;20667;-86
2021/12/15 00:37:42;;;;;;;34.67;18.55;;;11.10;99.90;;;;;;4976839;28;20264;-86
2021/12/15 00:40:12;;;;;;;39.97;18.30;;;10.80;99.90;;;;;;4976726;28;20224;-85
2021/12/15 00:42:38;;;;;;;35.47;17.45;;;11.00;99.90;;;;;;4977024;28;20186;-86
2021/12/15 00:45:05;;;;;;;32.40;18.13;;;11.10;99.90;;;;;;4976743;28;20707;-85
2021/12/15 00:47:31;;;;;;;38.45;19.10;;;10.80;99.90;;;;;;4976815;28;20292;-86
2021/12/15 00:49:57;;;;;;;45.50;20.95;;;10.70;99.90;;;;;;4977108;28;20624;-86
2021/12/15 00:52:23;;;;;;;40.08;20.73;;;10.80;99.90;;;;;;4991986;28;20233;-78
2021/12/15 00:54:49;;;;;;;37.75;18.90;;;10.80;99.90;;;;;;4991504;28;20180;-83
2021/12/15 00:57:15;;;;;;;40.85;19.40;;;10.90;99.90;;;;;;4992244;28;20186;-77
2021/12/15 00:59:40;;;;;;;39.10;18.50;;;10.90;99.90;;;;;;4991925;28;20212;-78
2021/12/15 01:02:09;;;;;;;34.50;18.10;;;10.90;99.90;;;;;;4991135;28;20166;-80
2021/12/15 01:04:35;;;;;;;33.67;16.30;;;10.80;99.90;;;;;;4995181;28;20540;-82
2021/12/15 01:07:06;;;;;;;32.35;17.48;;;10.80;99.90;;;;;;4997764;28;20199;-82
2021/12/15 01:09:42;;;;;;;36.47;18.13;;;11.00;99.90;;;;;;4997483;28;20173;-77
2021/12/15 01:12:19;;;;;;;35.15;17.30;;;11.10;99.90;;;;;;4978810;28;20169;-77
2021/12/15 01:20:49;;;;;;;37.10;18.58;;;11.10;99.90;;;;;;4976561;28;20185;-85
2021/12/15 01:23:18;;;;;;;40.47;18.77;;;11.10;99.90;;;;;;4976115;28;20236;-86
2021/12/15 01:25:52;;;;;;;40.20;20.20;;;11.10;99.90;;;;;;4976162;28;20166;-82
2021/12/15 01:28:19;;;;;;;37.38;18.27;;;10.90;99.90;;;;;;4976175;28;20216;-84
2021/12/15 01:30:51;;;;;;;40.45;19.77;;;10.80;99.90;;;;;;4990473;28;20173;-85
2021/12/15 01:33:16;;;;;;;49.78;19.80;;;10.80;99.90;;;;;;4976055;28;20240;-77
2021/12/15 01:35:47;;;;;;;44.80;20.52;;;10.70;99.90;;;;;;4975864;28;20636;-80
2021/12/15 01:38:14;;;;;;;40.15;19.10;;;10.80;99.90;;;;;;4975673;28;20193;-85
2021/12/15 01:40:44;;;;;;;43.55;20.83;;;10.80;99.90;;;;;;4976018;28;20257;-83
2021/12/15 01:43:20;;;;;;;42.45;19.35;;;11.00;99.90;;;;;;4976014;28;20192;-87
2021/12/15 01:48:37;;;;;;;44.03;20.27;;;11.00;99.90;;;;;;4975503;28;20646;-77
2021/12/15 01:51:05;;;;;;;41.90;18.98;;;10.90;99.90;;;;;;4975997;28;20205;-85
2021/12/15 01:53:31;;;;;;;39.83;19.30;;;11.00;99.90;;;;;;4990751;28;20580;-86
2021/12/15 01:55:57;;;;;;;38.55;18.83;;;10.80;99.90;;;;;;4975584;28;20169;-82
2021/12/15 01:58:24;;;;;;;38.78;19.23;;;10.80;99.90;;;;;;4975540;28;20727;-86
2021/12/15 02:00:54;;;;;;;37.15;18.83;;;10.80;99.90;;;;;;4975714;28;20169;-79
2021/12/15 02:03:21;;;;;;;41.20;18.10;;;10.80;99.90;;;;;;4975899;28;20244;-83
2021/12/15 02:05:46;;;;;;;35.13;16.85;;;10.70;99.90;;;;;;4975473;28;20177;-77
2021/12/15 02:08:13;;;;;;;38.25;17.33;;;10.60;99.90;;;;;;4975221;28;20202;-84
2021/12/15 02:10:41;;;;;;;37.63;17.85;;;10.70;99.90;;;;;;4975416;28;20165;-79
2021/12/15 02:13:10;;;;;;;41.95;19.40;;;10.70;99.90;;;;;;4990683;28;20673;-83
2021/12/15 02:15:45;;;;;;;47.10;20.17;;;10.70;99.90;;;;;;4974811;28;20192;-86
2021/12/15 02:18:15;;;;;;;39.58;18.27;;;10.80;99.90;;;;;;4974936;28;20197;-82
2021/12/15 02:20:50;;;;;;;43.83;19.38;;;10.90;99.90;;;;;;4975219;28;20172;-78
2021/12/15 02:23:21;;;;;;;35.60;18.95;;;11.00;99.90;;;;;;4974792;28;20204;-83
2021/12/15 02:25:48;;;;;;;37.58;17.27;;;10.90;99.90;;;;;;4975002;28;20225;-86
2021/12/15 02:28:14;;;;;;;41.70;17.92;;;10.90;99.90;;;;;;4975926;28;20217;-78
2021/12/15 02:34:06;;;;;;;40.63;17.70;;;10.90;99.90;;;;;;4973160;28;20185;-85
2021/12/15 02:39:16;;;;;;;38.50;18.88;;;10.80;99.90;;;;;;4975093;28;20176;-82
2021/12/15 02:41:45;;;;;;;36.35;18.23;;;10.90;99.90;;;;;;4974184;28;20546;-78
2021/12/15 02:44:18;;;;;;;36.35;16.27;;;11.00;99.90;;;;;;4974887;28;20166;-85
2021/12/15 02:46:44;;;;;;;38.05;17.27;;;11.10;99.90;;;;;;4974616;28;20300;-84
2021/12/15 02:49:12;;;;;;;35.38;16.10;;;11.10;99.90;;;;;;4974758;28;20241;-82
2021/12/15 02:51:40;;;;;;;35.35;18.13;;;11.10;99.90;;;;;;4974676;28;20165;-86
2021/12/15 02:54:08;;;;;;;33.33;16.42;;;11.20;99.90;;;;;;4974736;28;20170;-86
2021/12/15 02:56:35;;;;;;;33.08;15.52;;;11.00;99.90;;;;;;4975188;28;20197;-86
2021/12/15 02:59:04;;;;;;;34.90;17.25;;;11.10;99.90;;;;;;4974443;28;20173;-85
2021/12/15 03:01:51;;;;;;;27.52;15.55;;;11.10;99.90;;;;;;4974663;28;20162;-83
2021/12/15 03:04:38;;;;;;;36.22;17.38;;;11.10;99.90;;;;;;4974790;28;20154;-85
2021/12/15 03:07:24;;;;;;;36.75;17.48;;;11.10;99.90;;;;;;4974868;28;20213;-87
2021/12/15 03:15:35;;;;;;;33.63;17.80;;;11.00;99.90;;;;;;4975003;28;20217;-86
2021/12/15 03:18:11;;;;;;;34.63;17.02;;;11.10;99.90;;;;;;4978746;28;20190;-84
2021/12/15 03:20:49;;;;;;;32.53;17.73;;;11.20;99.90;;;;;;4985688;28;20170;-82
2021/12/15 03:23:32;;;;;;;31.45;17.58;;;10.90;99.90;;;;;;4985106;28;20517;-80
2021/12/15 03:25:59;;;;;;;38.17;18.10;;;10.90;99.90;;;;;;4986144;28;20174;-85
2021/12/15 03:36:53;;;;;;;31.70;17.02;;;10.70;99.90;;;;;;4974695;28;20178;-84
2021/12/15 03:39:20;;;;;;;27.48;15.48;;;10.80;99.90;;;;;;4973817;28;20170;-83
2021/12/15 03:41:52;;;;;;;33.28;16.80;;;11.00;99.90;;;;;;4974556;28;20185;-85
2021/12/15 03:44:18;;;;;;;31.83;16.90;;;11.00;99.90;;;;;;4974419;28;20174;-84
2021/12/15 03:46:44;;;;;;;28.70;15.80;;;11.00;99.90;;;;;;4974450;28;20226;-86
2021/12/15 03:49:10;;;;;;;32.05;17.38;;;10.90;99.90;;;;;;4973992;28;20162;-86
2021/12/15 03:51:36;;;;;;;29.30;16.15;;;10.90;99.90;;;;;;4975048;28;20196;-82
2021/12/15 03:54:03;;;;;;;30.15;17.17;;;11.00;99.90;;;;;;4977465;28;20252;-83
2021/12/15 03:56:28;;;;;;;30.02;16.45;;;10.80;99.90;;;;;;4977713;28;20176;-81
2021/12/15 03:58:56;;;;;;;33.92;17.90;;;10.90;99.90;;;;;;4977938;28;20170;-85
2021/12/15 04:01:23;;;;;;;33.88;17.55;;;11.00;99.90;;;;;;4977865;28;20666;-86
2021/12/15 04:03:51;;;;;;;40.42;17.83;;;11.10;99.90;;;;;;4977610;28;20634;-86
2021/12/15 04:06:23;;;;;;;29.08;17.55;;;11.20;99.90;;;;;;4977791;28;20177;-86
2021/12/15 04:08:49;;;;;;;27.52;16.58;;;11.20;99.90;;;;;;4977681;28;20206;-84
2021/12/15 04:11:17;;;;;;;30.10;16.80;;;11.00;99.90;;;;;;4977763;28;20225;-80
2021/12/15 04:13:45;;;;;;;32.95;18.27;;;10.90;99.90;;;;;;4977452;28;20641;-86
2021/12/15 04:16:26;;;;;;;33.20;18.10;;;11.00;99.90;;;;;;4977365;28;20224;-84
2021/12/15 04:18:52;;;;;;;34.00;17.50;;;11.00;99.90;;;;;;4977471;28;20636;-85
2021/12/15 04:21:18;;;;;;;34.60;17.67;;;11.20;99.90;;;;;;4977571;28;20261;-81
2021/12/15 04:23:53;;;;;;;36.25;19.40;;;11.10;99.90;;;;;;4977330;28;20201;-85
2021/12/15 04:26:19;;;;;;;36.97;18.52;;;11.20;99.90;;;;;;4992016;28;20256;-85
2021/12/15 04:28:45;;;;;;;37.08;17.20;;;11.10;99.90;;;;;;4976992;28;20634;-85
2021/12/15 04:31:14;;;;;;;41.50;19.55;;;10.80;99.90;;;;;;4977255;28;20640;-85
2021/12/15 04:33:40;;;;;;;39.47;18.77;;;10.90;99.90;;;;;;4978089;28;20169;-85
2021/12/15 04:36:09;;;;;;;41.60;21.42;;;11.00;99.90;;;;;;4977043;28;20249;-86
2021/12/15 04:38:36;;;;;;;46.75;20.90;;;11.10;99.90;;;;;;4976681;28;20198;-84
2021/12/15 04:41:05;;;;;;;41.78;20.23;;;11.00;99.90;;;;;;4976870;28;20178;-86
2021/12/15 04:43:34;;;;;;;53.50;19.90;;;10.80;99.90;;;;;;4976809;28;20170;-85
2021/12/15 04:46:02;;;;;;;41.72;19.88;;;10.80;99.90;;;;;;4977305;28;20166;-83
2021/12/15 04:48:28;;;;;;;40.35;20.17;;;10.90;99.90;;;;;;4975569;28;20222;-87
2021/12/15 04:50:54;;;;;;;42.88;19.52;;;10.80;99.90;;;;;;4976813;28;20170;-83
2021/12/15 04:53:20;;;;;;;41.83;20.02;;;10.80;99.90;;;;;;4976623;28;20644;-84
2021/12/15 04:55:45;;;;;;;41.72;21.10;;;11.00;99.90;;;;;;4976677;28;20252;-78
2021/12/15 04:58:11;;;;;;;34.08;19.77;;;11.10;99.90;;;;;;4976181;28;20185;-82
2021/12/15 05:00:45;;;;;;;39.97;19.70;;;11.20;99.90;;;;;;4976463;28;20162;-84
2021/12/15 05:03:12;;;;;;;41.30;19.95;;;11.30;99.90;;;;;;4976317;28;20169;-84
2021/12/15 05:05:38;;;;;;;41.45;20.88;;;11.10;99.90;;;;;;4975740;28;20166;-79
2021/12/15 05:08:05;;;;;;;36.47;18.50;;;10.90;99.90;;;;;;4975929;28;20317;-85
2021/12/15 05:10:31;;;;;;;40.72;20.58;;;10.90;99.90;;;;;;4976545;28;20174;-81
2021/12/15 05:12:57;;;;;;;41.53;22.02;;;11.00;99.90;;;;;;4976769;28;20174;-85
2021/12/15 05:15:24;;;;;;;39.72;19.23;;;11.20;99.90;;;;;;4976294;28;20170;-80
2021/12/15 05:17:50;;;;;;;36.88;20.52;;;11.00;99.90;;;;;;4975934;28;20236;-86
2021/12/15 05:20:15;;;;;;;39.00;19.45;;;10.90;99.90;;;;;;4976375;28;20256;-86
2021/12/15 05:22:41;;;;;;;35.28;19.98;;;10.90;99.90;;;;;;4976298;28;20809;-85
2021/12/15 05:25:08;;;;;;;34.95;18.85;;;11.00;99.90;;;;;;4976527;28;20169;-86
2021/12/15 05:27:35;;;;;;;35.35;19.23;;;10.90;99.90;;;;;;4976136;28;20214;-87
2021/12/15 05:30:00;;;;;;;32.42;18.60;;;10.70;99.90;;;;;;4976146;28;20170;-86
2021/12/15 05:32:28;;;;;;;38.55;18.25;;;10.80;99.90;;;;;;4976256;28;20703;-78
2021/12/15 05:34:57;;;;;;;31.20;17.10;;;10.90;99.90;;;;;;4976020;28;20170;-87
2021/12/15 05:37:23;;;;;;;33.75;17.50;;;10.90;99.90;;;;;;4975846;28;20186;-86
2021/12/15 05:39:50;;;;;;;34.60;19.08;;;10.80;99.90;;;;;;4990924;28;20228;-86
2021/12/15 05:42:18;;;;;;;29.83;17.55;;;10.80;99.90;;;;;;4990853;28;20244;-78
2021/12/15 05:44:44;;;;;;;36.75;18.95;;;10.80;99.90;;;;;;4976042;28;20216;-81
2021/12/15 05:47:10;;;;;;;39.97;19.08;;;10.90;99.90;;;;;;4975654;28;20205;-82
2021/12/15 05:49:36;;;;;;;43.83;20.63;;;10.90;99.90;;;;;;4975245;28;20181;-84
2021/12/15 05:52:03;;;;;;;40.60;18.80;;;11.10;99.90;;;;;;4975644;28;20170;-83
2021/12/15 05:54:29;;;;;;;39.60;18.75;;;11.00;99.90;;;;;;4958151;28;20177;-80
2021/12/15 05:56:55;;;;;;;36.20;19.08;;;11.00;99.90;;;;;;4976284;28;20186;-81
2021/12/15 05:59:21;;;;;;;36.97;19.90;;;11.00;99.90;;;;;;4975199;28;20170;-85
2021/12/15 06:01:47;;;;;;;36.15;18.88;;;11.10;99.90;;;;;;4975109;28;20533;-86
2021/12/15 06:04:13;;;;;;;37.00;18.13;;;11.00;99.90;;;;;;4975371;28;20166;-86
2021/12/15 06:06:39;;;;;;;44.67;20.38;;;11.10;99.90;;;;;;4991506;28;20188;-86
2021/12/15 06:09:08;;;;;;;34.25;17.85;;;11.00;99.90;;;;;;4975283;28;20691;-85
2021/12/15 06:11:34;;;;;;;31.25;17.85;;;10.80;99.90;;;;;;4975551;28;20174;-86
2021/12/15 06:14:00;;;;;;;35.20;20.40;;;10.80;99.90;;;;;;4975082;28;20193;-81
2021/12/15 06:16:26;;;;;;;37.95;18.77;;;10.90;99.90;;;;;;4975121;28;20623;-77
2021/12/15 06:18:52;;;;;;;37.47;20.10;;;11.00;99.90;;;;;;4975256;28;20177;-85
2021/12/15 06:21:19;;;;;;;36.38;19.95;;;10.90;99.90;;;;;;4975315;28;20629;-78
2021/12/15 06:23:47;;;;;;;34.53;19.42;;;11.00;99.90;;;;;;4990129;28;20272;-79
2021/12/15 06:28:58;;;;;;;35.55;19.13;;;11.30;99.90;;;;;;4973184;28;20221;-79
2021/12/15 06:31:24;;;;;;;37.30;19.13;;;11.40;99.90;;;;;;4972727;28;20182;-83
2021/12/15 06:33:49;;;;;;;42.30;20.25;;;11.40;99.90;;;;;;4972853;28;20234;-86
2021/12/15 06:36:20;;;;;;;41.05;20.60;;;11.20;99.90;;;;;;4973284;28;20174;-79
2021/12/15 06:38:49;;;;;;;33.78;18.63;;;11.10;99.90;;;;;;4972561;28;20193;-87
2021/12/15 06:41:14;;;;;;;37.65;20.55;;;11.20;99.90;;;;;;4972436;28;20181;-85
2021/12/15 06:43:44;;;;;;;38.70;19.65;;;11.20;99.90;;;;;;4972574;28;20241;-81
2021/12/15 06:59:34;;;;;;;31.92;15.68;;;11.20;99.90;;;;;;4973302;28;20196;-78
2021/12/15 07:02:01;;;;;;;33.38;17.63;;;10.80;99.90;;;;;;4989244;28;20542;-82
2021/12/15 07:04:28;;;;;;;38.25;19.80;;;10.80;99.90;;;;;;4974776;28;20216;-78
2021/12/15 07:06:54;;;;;;;30.80;17.88;;;10.90;99.90;;;;;;4974594;28;20241;-81
2021/12/15 07:09:21;;;;;;;37.30;18.58;;;11.10;99.90;;;;;;4974763;28;20174;-87
2021/12/15 07:11:49;;;;;;;36.20;18.73;;;11.20;99.90;;;;;;4974340;28;20170;-78
2021/12/15 07:14:14;;;;;;;34.35;18.10;;;11.30;99.90;;;;;;4974383;28;20174;-85
2021/12/15 07:16:43;;;;;;;36.00;19.13;;;11.20;99.90;;;;;;4974368;28;20162;-83
2021/12/15 07:19:17;;;;;;;32.67;19.92;;;11.20;99.90;;;;;;4974731;28;20174;-87
2021/12/15 07:21:54;;;;;;;38.22;19.20;;;11.30;99.90;;;;;;4974538;28;20181;-78
2021/12/15 07:24:21;;;;;;;38.47;20.35;;;11.40;99.90;;;;;;4974267;28;20170;-82
2021/12/15 07:26:48;;;;;;;46.03;20.33;;;11.30;99.90;;;;;;4989107;28;20174;-81
2021/12/15 07:29:13;;;;;;;39.30;19.67;;;11.30;99.90;;;;;;4980060;28;20181;-86
2021/12/15 07:31:39;;;;;;;37.92;20.05;;;11.30;99.90;;;;;;4980697;28;20184;-81
2021/12/15 07:34:05;;;;;;;33.28;18.75;;;11.40;99.90;;;;;;4980777;28;20269;-86
2021/12/15 07:36:30;;;;;;;36.17;19.10;;;11.20;99.90;;;;;;4985337;28;20197;-80
2021/12/15 07:38:58;;;;;;;37.70;19.30;;;11.30;99.90;;;;;;4978818;28;20170;-81
2021/12/15 07:41:37;;;;;;;33.90;19.20;;;11.20;99.90;;;;;;4980318;28;20201;-84
2021/12/15 07:44:03;;;;;;;35.63;18.48;;;11.30;99.90;;;;;;4985004;28;20213;-80
2021/12/15 07:46:30;;;;;;;36.33;19.95;;;11.20;99.90;;;;;;4993898;28;20189;-78
2021/12/15 07:48:56;;;;;;;35.33;19.35;;;11.10;99.90;;;;;;5009285;28;20212;-80
2021/12/15 07:51:22;;;;;;;32.17;18.08;;;11.10;99.90;;;;;;5010647;28;20166;-80
2021/12/15 07:53:48;;;;;;;37.35;19.13;;;11.30;99.90;;;;;;5010976;28;20174;-89
2021/12/15 07:56:15;;;;;;;35.88;17.90;;;11.20;99.90;;;;;;5008027;28;20220;-83
2021/12/15 07:58:41;;;;;;;35.55;18.27;;;11.30;99.90;;;;;;5000335;28;20635;-83
2021/12/15 08:01:08;;;;;;;36.67;20.00;;;11.30;99.90;;;;;;4998352;28;20166;-84
2021/12/15 08:03:38;;;;;;;38.17;18.42;;;11.10;99.90;;;;;;5001860;28;20165;-86
2021/12/15 08:06:04;;;;;;;40.08;18.25;;;11.10;99.90;;;;;;5001914;28;20173;-83
2021/12/15 08:08:30;;;;;;;27.50;17.27;;;11.10;99.90;;;;;;5001747;28;20216;-88
2021/12/15 08:10:57;;;;;;;34.13;17.88;;;10.90;99.90;;;;;;4997651;28;20252;-80
2021/12/15 08:13:34;;;;;;;31.67;17.40;;;10.80;99.90;;;;;;4997778;28;20648;-80
2021/12/15 08:16:00;;;;;;;37.80;19.52;;;10.90;99.90;;;;;;4994613;28;20161;-79
2021/12/15 08:18:26;;;;;;;33.17;18.08;;;11.10;99.90;;;;;;5016388;28;20216;-79
2021/12/15 08:20:52;;;;;;;37.97;18.63;;;11.10;99.90;;;;;;5000064;28;20189;-81
2021/12/15 08:23:18;;;;;;;36.47;19.13;;;11.20;99.90;;;;;;4991985;28;20174;-83
2021/12/15 08:25:44;;;;;;;40.92;19.90;;;11.10;99.90;;;;;;4996671;28;20193;-78
2021/12/15 08:28:11;;;;;;;32.90;18.23;;;11.10;99.90;;;;;;4996430;28;20201;-78
2021/12/15 08:30:39;;;;;;;31.25;18.77;;;11.20;99.90;;;;;;4995712;28;20162;-79
2021/12/15 08:33:08;;;;;;;37.33;17.38;;;11.10;99.90;;;;;;4996656;28;20189;-78
2021/12/15 08:35:37;;;;;;;45.35;19.85;;;11.10;99.90;;;;;;4982744;28;20185;-81
2021/12/15 08:38:06;;;;;;;42.80;18.50;;;11.30;99.90;;;;;;4992233;28;20249;-77
2021/12/15 08:40:33;;;;;;;38.58;18.60;;;11.10;99.90;;;;;;4991722;28;20244;-80
2021/12/15 08:42:59;;;;;;;35.03;18.50;;;11.20;99.90;;;;;;4981977;28;20184;-78
2021/12/15 08:45:26;;;;;;;34.22;19.35;;;11.20;99.90;;;;;;4973119;28;20182;-84
2021/12/15 08:47:52;;;;;;;32.58;17.40;;;11.20;99.90;;;;;;4958848;28;20317;-87
2021/12/15 08:50:24;;;;;;;37.58;18.90;;;11.10;99.90;;;;;;4976394;28;20177;-81
2021/12/15 08:52:49;;;;;;;41.60;18.80;;;11.00;99.90;;;;;;4975680;28;20533;-84
2021/12/15 08:55:16;;;;;;;37.40;19.38;;;11.30;99.90;;;;;;4939953;29;20178;-82
2021/12/15 08:57:47;;;;;;;31.50;17.67;;;11.30;99.90;;;;;;4973354;28;20228;-85
2021/12/15 09:00:14;;;;;;;25.92;17.15;;;11.30;99.90;;;;;;4975458;28;20169;-77
2021/12/15 09:02:40;;;;;;;40.38;18.60;;;11.20;99.90;;;;;;4959315;28;20170;-79
2021/12/15 09:05:07;;;;;;;34.63;18.25;;;11.40;99.90;;;;;;4976696;28;20184;-89
2021/12/15 09:07:32;;;;;;;35.95;18.60;;;11.40;99.90;;;;;;4976073;28;20208;-86
2021/12/15 09:09:58;;;;;;;33.85;18.17;;;11.30;99.90;;;;;;4976814;28;20174;-86
2021/12/15 09:12:24;;;;;;;32.70;18.35;;;11.40;99.90;;;;;;4959131;28;20221;-87
2021/12/15 09:14:50;;;;;;;35.47;19.20;;;11.40;99.90;;;;;;4959225;28;20549;-88
2021/12/15 09:17:16;;;;;;;35.50;18.67;;;11.20;99.90;;;;;;4976071;28;20265;-85
2021/12/15 09:19:42;;;;;;;31.42;17.35;;;11.30;99.90;;;;;;4976305;28;20182;-79
2021/12/15 09:22:07;;;;;;;34.28;18.17;;;11.40;99.90;;;;;;4976417;28;20165;-79
2021/12/15 09:24:33;;;;;;;33.38;18.05;;;11.30;99.90;;;;;;4976574;28;20173;-89
2021/12/15 09:26:59;;;;;;;34.45;18.23;;;11.40;99.90;;;;;;4975831;28;20240;-88
2021/12/15 09:29:25;;;;;;;28.23;17.10;;;11.40;99.90;;;;;;4959156;28;20180;-84
2021/12/15 09:31:53;;;;;;;34.95;19.17;;;11.40;99.90;;;;;;4975741;28;20168;-83
2021/12/15 09:34:19;;;;;;;32.85;19.10;;;11.30;99.90;;;;;;4976549;28;20166;-79
2021/12/15 09:36:50;;;;;;;27.58;16.77;;;11.50;99.90;;;;;;4958858;28;20176;-92
2021/12/15 09:39:17;;;;;;;30.23;18.45;;;11.50;99.90;;;;;;4976487;28;20686;-84
2021/12/15 09:41:43;;;;;;;34.65;17.70;;;11.50;99.90;;;;;;4959813;28;20182;-90
2021/12/15 09:44:14;;;;;;;31.52;18.23;;;11.50;99.90;;;;;;4959906;28;20225;-86
2021/12/15 10:01:53;;;;;;;32.38;18.48;;;11.50;99.90;;;;;;4975480;28;20245;-81
2021/12/15 10:03:13;;;;;;;33.75;18.25;;;11.50;99.90;;;;;;4977933;28;20185;-82
2021/12/15 10:11:19;;;;;;;29.02;18.48;;;11.60;99.90;;;;;;4977521;28;20181;-84
2021/12/15 10:19:19;;;;;;;30.13;17.63;;;11.40;99.90;;;;;;4976904;28;20652;-88
2021/12/15 10:22:05;;;;;;;27.23;18.05;;;11.40;99.90;;;;;;4977031;28;20173;-80
2021/12/15 10:24:45;;;;;;;27.10;18.98;;;11.30;99.90;;;;;;4977221;28;20166;-79
2021/12/15 10:27:13;;;;;;;33.35;19.27;;;11.10;99.90;;;;;;4959420;28;20734;-85
2021/12/15 10:30:00;;;;;;;26.33;16.83;;;11.30;99.90;;;;;;4977321;28;20213;-84
2021/12/15 10:32:31;;;;;;;31.88;17.85;;;11.60;99.90;;;;;;4978749;28;20251;-85
2021/12/15 10:35:08;;;;;;;26.73;16.95;;;11.70;99.90;;;;;;4977049;28;20193;-82
2021/12/15 10:37:34;;;;;;;28.20;16.75;;;11.70;99.90;;;;;;4976854;28;20282;-88
2021/12/15 10:40:21;;;;;;;30.58;16.65;;;11.40;99.90;;;;;;4977269;28;20178;-88
2021/12/15 10:43:00;;;;;;;29.83;15.93;;;11.50;99.90;;;;;;4980172;28;20272;-80
2021/12/15 10:45:34;;;;;;;24.73;16.33;;;11.60;99.90;;;;;;4980081;28;20173;-78
2021/12/15 10:48:01;;;;;;;27.85;15.80;;;11.60;99.90;;;;;;4983236;28;20221;-83
2021/12/15 10:50:27;;;;;;;27.30;17.08;;;11.70;99.90;;;;;;4981008;28;20186;-85
2021/12/15 10:52:59;;;;;;;32.50;17.25;;;11.80;99.90;;;;;;4978748;28;20515;-79
2021/12/15 10:55:31;;;;;;;26.45;15.88;;;12.00;99.90;;;;;;4971355;28;20190;-77
2021/12/15 10:57:56;;;;;;;26.90;16.65;;;12.00;99.90;;;;;;4988832;28;20213;-81
2021/12/15 11:00:22;;;;;;;26.98;16.30;;;11.90;99.90;;;;;;4985744;28;20166;-82
2021/12/15 11:02:48;;;;;;;26.30;15.52;;;11.70;99.90;;;;;;4985370;28;20201;-78
2021/12/15 11:05:20;;;;;;;29.70;16.17;;;11.90;99.90;;;;;;4989520;28;20162;-79
2021/12/15 11:07:47;;;;;;;24.70;16.40;;;12.00;99.90;;;;;;4992024;28;20210;-79
2021/12/15 11:10:25;;;;;;;20.98;14.90;;;11.90;99.90;;;;;;4985815;28;20248;-81
2021/12/15 11:12:57;;;;;;;24.55;15.63;;;12.00;99.90;;;;;;4966309;29;20273;-79
2021/12/15 11:15:31;;;;;;;37.13;16.92;;;11.80;99.90;;;;;;4982119;28;20178;-79
2021/12/15 11:18:00;;;;;;;26.85;15.65;;;11.80;99.90;;;;;;4987941;28;20182;-79
2021/12/15 11:20:37;;;;;;;29.48;15.15;;;11.80;99.90;;;;;;4985664;28;20186;-81
2021/12/15 11:23:05;;;;;;;24.50;14.98;;;11.90;99.90;;;;;;4979878;28;20320;-81
2021/12/15 11:25:36;;;;;;;25.95;16.67;;;11.80;99.90;;;;;;4981904;28;20205;-82
2021/12/15 11:28:10;;;;;;;24.45;15.27;;;11.80;99.90;;;;;;4961508;28;20221;-78
2021/12/15 11:30:58;;;;;;;26.70;15.68;;;11.90;99.90;;;;;;4977359;28;20170;-81
2021/12/15 11:33:28;;;;;;;24.02;15.68;;;11.70;99.90;;;;;;4979515;28;20174;-87
2021/12/15 11:36:00;;;;;;;22.85;15.38;;;11.90;99.90;;;;;;4978525;28;20209;-87
2021/12/15 11:38:27;;;;;;;27.35;15.88;;;11.80;99.90;;;;;;4962357;28;20208;-80
2021/12/15 11:40:56;;;;;;;22.45;16.73;;;12.00;99.90;;;;;;4978437;28;20166;-79
2021/12/15 11:43:33;;;;;;;23.52;15.52;;;11.90;99.90;;;;;;4977317;28;20659;-82
2021/12/15 11:46:01;;;;;;;23.30;16.58;;;11.90;99.90;;;;;;4979224;28;20194;-86
2021/12/15 11:48:32;;;;;;;23.50;16.13;;;11.70;99.90;;;;;;4978698;28;20252;-84
2021/12/15 11:51:03;;;;;;;25.75;15.77;;;11.80;99.90;;;;;;4978112;28;20655;-83
2021/12/15 11:53:28;;;;;;;30.42;18.20;;;11.80;99.90;;;;;;4978301;28;20166;-85
2021/12/15 11:55:54;;;;;;;32.53;16.52;;;11.90;99.90;;;;;;4977733;28;20224;-85
2021/12/15 11:58:30;;;;;;;29.00;16.42;;;11.70;99.90;;;;;;4960359;28;20193;-80
2021/12/15 12:00:56;;;;;;;28.02;15.63;;;11.90;99.90;;;;;;4978245;28;20727;-82
2021/12/15 12:03:22;;;;;;;23.48;15.88;;;11.80;99.90;;;;;;4977303;28;20264;-88
2021/12/15 12:05:47;;;;;;;28.60;16.73;;;11.70;99.90;;;;;;4978306;28;20249;-86
2021/12/15 12:08:14;;;;;;;22.98;14.90;;;11.80;99.90;;;;;;4977353;28;20212;-81
2021/12/15 12:10:48;;;;;;;21.63;15.30;;;11.80;99.90;;;;;;4977758;28;20166;-77
2021/12/15 12:13:27;;;;;;;27.63;16.40;;;11.80;99.90;;;;;;4978113;28;20511;-85
2021/12/15 12:15:59;;;;;;;29.38;16.10;;;11.90;99.90;;;;;;4978613;28;20530;-86
2021/12/15 12:18:28;;;;;;;24.85;15.27;;;11.80;99.90;;;;;;4977623;28;20205;-84
2021/12/15 12:21:05;;;;;;;28.80;16.98;;;11.80;99.90;;;;;;4977746;28;20169;-89
2021/12/15 12:23:33;;;;;;;24.25;15.80;;;11.80;99.90;;;;;;4977910;28;20252;-86
2021/12/15 12:26:06;;;;;;;25.73;16.70;;;11.80;99.90;;;;;;4977912;28;20170;-82
2021/12/15 12:28:35;;;;;;;22.67;16.73;;;11.80;99.90;;;;;;4977858;28;20236;-82
2021/12/15 12:31:23;;;;;;;27.77;15.85;;;11.90;99.90;;;;;;4977216;28;20209;-87
2021/12/15 12:33:50;;;;;;;28.02;17.85;;;11.90;99.90;;;;;;4975159;28;20724;-85
2021/12/15 12:36:21;;;;;;;26.77;16.75;;;11.90;99.90;;;;;;4977619;28;20166;-81
2021/12/15 12:38:54;;;;;;;25.02;16.83;;;11.90;99.90;;;;;;4975626;28;20723;-79
2021/12/15 12:41:24;;;;;;;23.13;16.10;;;11.90;99.90;;;;;;4976864;28;20194;-86
2021/12/15 12:43:56;;;;;;;25.55;16.42;;;12.00;99.90;;;;;;4976806;28;20162;-77
2021/12/15 12:46:37;;;;;;;33.08;17.73;;;11.90;99.90;;;;;;4976936;28;20233;-80
2021/12/15 13:00:25;;;;;;;27.45;17.27;;;12.20;99.90;;;;;;4976704;28;20184;-78
2021/12/15 13:03:00;;;;;;;25.30;16.90;;;12.30;99.90;;;;;;4977008;28;20174;-86
2021/12/15 13:05:37;;;;;;;25.35;15.65;;;12.50;99.90;;;;;;4977998;28;20162;-86
2021/12/15 13:08:33;;;;;;;19.63;15.70;;;12.40;99.90;;;;;;4977314;28;20256;-85
2021/12/15 13:11:04;;;;;;;24.17;16.52;;;12.30;99.90;;;;;;4977684;28;20173;-86
2021/12/15 13:13:35;;;;;;;33.50;17.90;;;12.40;99.90;;;;;;4978445;28;20178;-87
2021/12/15 13:16:10;;;;;;;25.75;17.75;;;12.40;99.90;;;;;;4978792;28;20173;-86
2021/12/15 13:19:14;;;;;;;31.25;17.20;;;12.40;99.90;;;;;;4968497;28;20561;-85
2021/12/15 13:21:59;;;;;;;29.17;18.15;;;12.30;99.90;;;;;;4976550;28;20181;-77
2021/12/15 13:29:02;;;;;;;26.80;16.40;;;12.20;99.90;;;;;;4981044;28;20241;-77
2021/12/15 13:30:58;;;;;;;28.33;17.38;;;12.30;99.90;;;;;;4971126;28;20605;-77
2021/12/15 13:33:33;;;;;;;28.92;18.08;;;12.50;99.90;;;;;;4975436;28;20158;-84
2021/12/15 13:36:22;;;;;;;27.55;17.42;;;12.50;99.90;;;;;;4976014;28;20228;-76
2021/12/15 13:38:49;;;;;;;27.55;18.83;;;12.40;99.90;;;;;;4975606;28;20205;-83
2021/12/15 13:44:30;;;;;;;29.45;18.27;;;12.40;99.90;;;;;;4975620;28;20986;-77
2021/12/15 13:47:09;;;;;;;28.55;20.17;;;12.50;99.90;;;;;;4972656;28;20247;-91
2021/12/15 13:49:47;;;;;;;30.95;17.35;;;12.50;99.90;;;;;;4974078;28;20185;-77
2021/12/15 13:52:43;;;;;;;34.47;17.42;;;12.40;99.90;;;;;;4974690;28;20162;-83
2021/12/15 13:55:30;;;;;;;30.73;17.15;;;12.40;99.90;;;;;;4975298;28;20265;-83
2021/12/15 13:58:08;;;;;;;25.65;17.20;;;12.30;99.90;;;;;;4979413;28;20242;-77
2021/12/15 14:00:47;;;;;;;27.58;18.13;;;12.40;99.90;;;;;;4985911;28;20156;-86
2021/12/15 14:03:24;;;;;;;33.72;18.83;;;12.40;99.90;;;;;;4978820;28;20202;-81
2021/12/15 14:06:08;;;;;;;30.10;19.13;;;12.40;99.90;;;;;;4975462;28;20552;-78
2021/12/15 14:08:49;;;;;;;27.15;18.42;;;12.30;99.90;;;;;;4974735;28;20210;-83